createdAt,value
2018-11-07T00:15:46.399Z,68.80
2018-11-07T00:18:15.734Z,68.90
2018-11-07T00:20:45.094Z,68.80
2018-11-07T00:23:14.467Z,68.70
2018-11-07T00:25:43.841Z,68.60
2018-11-07T00:28:13.298Z,68.70
2018-11-07T00:30:42.684Z,68.80
2018-11-07T00:33:12.013Z,68.90
2018-11-07T00:38:44.366Z,69.10
2018-11-07T00:41:13.719Z,69.10
2018-11-07T00:43:43.140Z,69.20
2018-11-07T00:46:12.527Z,69.30
2018-11-07T00:48:41.867Z,69.50
2018-11-07T01:09:40.247Z,69.20
2018-11-07T01:12:09.561Z,69.30
2018-11-07T01:14:38.995Z,69.10
2018-11-07T01:20:12.583Z,68.90
2018-11-07T01:25:44.678Z,68.10
2018-11-07T01:34:15.635Z,67.50
2018-11-07T01:39:48.147Z,67.20
2018-11-07T01:42:17.527Z,67.20
2018-11-07T01:44:47.868Z,67.40
2018-11-07T01:47:18.111Z,68.30
2018-11-07T01:49:48.303Z,67.80
2018-11-07T01:52:26.836Z,67.80
2018-11-07T01:54:56.167Z,67.70
2018-11-07T02:00:44.521Z,67.50
2018-11-07T02:03:13.863Z,67.50
2018-11-07T02:05:43.170Z,67.50
2018-11-07T02:08:12.458Z,67.70
2018-11-07T02:10:41.803Z,68.00
2018-11-07T02:13:11.133Z,68.30
2018-11-07T02:15:40.464Z,68.80
2018-11-07T02:18:09.787Z,69.10
2018-11-07T02:20:39.119Z,69.60
2018-11-07T02:23:08.474Z,70.00
2018-11-07T02:25:37.754Z,70.40
2018-11-07T02:28:07.087Z,70.90
2018-11-07T02:30:36.480Z,71.20
2018-11-07T02:33:05.800Z,71.40
2018-11-07T02:35:35.091Z,71.60
2018-11-07T02:38:04.607Z,71.80
2018-11-07T02:40:34.004Z,71.70
2018-11-07T02:43:03.613Z,71.80
2018-11-07T02:45:32.939Z,72.60
2018-11-07T02:48:02.219Z,72.10
2018-11-07T02:50:31.533Z,72.20
2018-11-07T02:53:00.888Z,72.30
2018-11-07T02:55:30.217Z,72.30
2018-11-07T02:57:59.549Z,72.30
2018-11-07T03:00:28.871Z,72.30
2018-11-07T03:02:58.176Z,72.50
2018-11-07T03:05:27.521Z,72.60
2018-11-07T03:07:57.018Z,72.70
2018-11-07T03:10:26.355Z,72.90
2018-11-07T03:12:56.628Z,73.00
2018-11-07T03:15:25.922Z,73.10
2018-11-07T03:17:55.269Z,73.20
2018-11-07T03:20:24.629Z,73.40
2018-11-07T03:22:53.949Z,73.50
2018-11-07T03:25:23.307Z,73.80
2018-11-07T03:27:52.636Z,74.20
2018-11-07T03:30:21.957Z,74.70
2018-11-07T03:32:51.314Z,74.60
2018-11-07T03:35:26.527Z,74.70
2018-11-07T03:37:56.541Z,74.80
2018-11-07T03:40:26.444Z,74.80
2018-11-07T03:42:55.769Z,74.90
2018-11-07T03:45:30.128Z,74.90
2018-11-07T03:47:59.411Z,74.80
2018-11-07T03:50:28.704Z,74.60
2018-11-07T03:52:58.043Z,74.40
2018-11-07T03:55:27.327Z,74.40
2018-11-07T03:57:56.645Z,74.60
2018-11-07T04:00:26.038Z,74.80
2018-11-07T04:02:55.357Z,75.00
2018-11-07T04:05:24.873Z,74.90
2018-11-07T04:07:54.232Z,74.60
2018-11-07T04:10:23.515Z,74.50
2018-11-07T04:12:52.827Z,74.50
2018-11-07T04:15:22.194Z,74.50
2018-11-07T04:17:51.539Z,74.60
2018-11-07T04:20:20.814Z,74.70
2018-11-07T04:22:50.181Z,74.90
2018-11-07T04:25:19.516Z,75.10
2018-11-07T04:27:48.853Z,75.10
2018-11-07T04:30:18.199Z,75.10
2018-11-07T04:32:47.580Z,75.30
2018-11-07T04:35:16.924Z,75.80
2018-11-07T04:37:46.256Z,77.10
2018-11-07T04:40:15.615Z,77.00
2018-11-07T04:42:44.886Z,76.70
2018-11-07T04:45:14.219Z,76.40
2018-11-07T04:47:43.604Z,76.60
2018-11-07T04:50:13.186Z,77.40
2018-11-07T04:52:42.482Z,76.60
2018-11-07T04:55:11.808Z,77.00
2018-11-07T04:57:41.215Z,77.30
2018-11-07T05:00:11.860Z,77.10
2018-11-07T05:02:41.740Z,76.90
2018-11-07T05:05:11.191Z,76.60
2018-11-07T05:07:40.542Z,76.70
2018-11-07T05:10:11.275Z,76.80
2018-11-07T05:12:40.668Z,76.90
2018-11-07T05:15:10.030Z,76.60
2018-11-07T05:17:39.370Z,76.20
2018-11-07T05:20:10.177Z,75.90
2018-11-07T05:22:39.458Z,75.40
2018-11-07T05:25:09.593Z,74.90
2018-11-07T05:27:38.944Z,73.60
2018-11-07T05:30:09.256Z,72.20
2018-11-07T05:32:38.773Z,71.90
2018-11-07T05:35:08.408Z,71.10
2018-11-07T05:37:37.770Z,70.30
2018-11-07T05:40:07.127Z,70.40
2018-11-07T05:42:36.455Z,70.30
2018-11-07T05:45:06.050Z,69.90
2018-11-07T05:47:35.312Z,69.70
2018-11-07T05:50:04.867Z,69.60
2018-11-07T05:52:34.195Z,69.60
2018-11-07T05:55:03.492Z,69.60
2018-11-07T05:57:32.787Z,69.80
2018-11-07T06:00:02.113Z,70.30
2018-11-07T06:02:31.442Z,70.90
2018-11-07T06:05:01.705Z,71.30
2018-11-07T06:07:31.005Z,71.70
2018-11-07T06:10:00.311Z,71.90
2018-11-07T06:12:29.607Z,71.90
2018-11-07T06:14:58.871Z,72.10
2018-11-07T06:17:28.882Z,72.30
2018-11-07T06:19:59.222Z,72.30
2018-11-07T06:22:28.605Z,72.50
2018-11-07T06:24:57.924Z,72.50
2018-11-07T06:27:27.299Z,72.50
2018-11-07T06:29:56.586Z,72.50
2018-11-07T06:32:25.877Z,72.50
2018-11-07T06:34:55.176Z,72.60
2018-11-07T06:37:24.508Z,72.80
2018-11-07T06:39:53.839Z,72.90
2018-11-07T06:42:23.182Z,73.90
2018-11-07T06:44:52.972Z,73.30
2018-11-07T06:47:22.282Z,73.80
2018-11-07T06:49:51.630Z,74.30
2018-11-07T06:52:20.965Z,74.90
2018-11-07T06:54:50.266Z,74.30
2018-11-07T06:57:19.697Z,74.50
2018-11-07T06:59:49.005Z,74.90
2018-11-07T07:02:18.378Z,75.10
2018-11-07T07:04:47.717Z,75.20
2018-11-07T07:07:17.034Z,75.20
2018-11-07T07:09:46.341Z,75.00
2018-11-07T07:12:15.625Z,74.70
2018-11-07T07:14:44.951Z,74.50
2018-11-07T07:17:14.297Z,74.60
2018-11-07T07:19:43.612Z,74.70
2018-11-07T07:22:12.879Z,74.60
2018-11-07T07:24:42.196Z,74.50
2018-11-07T07:27:11.553Z,74.30
2018-11-07T07:29:40.912Z,73.90
2018-11-07T07:32:10.175Z,73.90
2018-11-07T07:34:39.536Z,73.90
2018-11-07T07:37:08.901Z,74.00
2018-11-07T07:39:38.310Z,73.90
2018-11-07T07:42:07.752Z,74.00
2018-11-07T07:44:37.140Z,74.10
2018-11-07T07:47:06.690Z,74.20
2018-11-07T07:49:35.990Z,74.20
2018-11-07T07:52:05.452Z,74.30
2018-11-07T07:54:34.814Z,74.40
2018-11-07T07:57:04.138Z,74.30
2018-11-07T07:59:33.492Z,74.00
2018-11-07T08:02:02.993Z,73.40
2018-11-07T08:04:32.307Z,72.70
2018-11-07T08:07:01.733Z,72.60
2018-11-07T08:09:30.974Z,72.70
2018-11-07T08:12:00.270Z,73.00
2018-11-07T08:14:29.616Z,73.00
2018-11-07T08:16:58.927Z,72.70
2018-11-07T08:19:28.281Z,72.50
2018-11-07T08:21:57.598Z,72.30
2018-11-07T08:24:26.925Z,71.50
2018-11-07T08:26:56.231Z,70.90
2018-11-07T08:29:25.755Z,70.80
2018-11-07T08:31:55.088Z,69.90
2018-11-07T08:34:24.439Z,69.00
2018-11-07T08:36:53.759Z,68.50
2018-11-07T08:39:23.016Z,67.80
2018-11-07T08:41:52.315Z,67.70
2018-11-07T08:44:21.661Z,67.10
2018-11-07T08:46:50.952Z,67.10
2018-11-07T08:49:20.255Z,66.80
2018-11-07T08:51:49.594Z,65.70
2018-11-07T08:54:18.955Z,65.20
2018-11-07T08:56:48.255Z,64.40
2018-11-07T08:59:17.583Z,64.20
2018-11-07T09:01:46.921Z,64.40
2018-11-07T09:04:16.266Z,64.10
2018-11-07T09:06:45.634Z,64.10
2018-11-07T09:09:14.913Z,63.70
2018-11-07T09:11:44.186Z,62.30
2018-11-07T09:14:13.593Z,62.10
2018-11-07T09:16:43.034Z,62.20
2018-11-07T09:19:12.391Z,62.30
2018-11-07T09:21:41.709Z,62.20
2018-11-07T09:24:11.070Z,62.20
2018-11-07T09:26:40.442Z,62.10
2018-11-07T09:29:09.822Z,62.10
2018-11-07T09:31:39.083Z,61.20
2018-11-07T09:34:08.459Z,60.90
2018-11-07T09:36:37.937Z,61.20
2018-11-07T09:39:09.194Z,60.60
2018-11-07T09:41:38.621Z,60.40
2018-11-07T09:44:08.041Z,59.70
2018-11-07T09:46:37.354Z,59.50
2018-11-07T09:49:06.758Z,60.30
2018-11-07T09:51:36.054Z,59.00
2018-11-07T09:54:05.387Z,59.30
2018-11-07T09:56:34.787Z,59.60
2018-11-07T09:59:04.141Z,60.30
2018-11-07T10:01:33.458Z,60.70
2018-11-07T10:04:02.772Z,61.10
2018-11-07T10:06:32.091Z,61.70
2018-11-07T10:09:01.451Z,62.40
2018-11-07T10:11:30.800Z,63.00
2018-11-07T10:14:00.128Z,63.60
2018-11-07T10:16:29.454Z,63.90
2018-11-07T10:18:58.817Z,63.70
2018-11-07T10:21:28.141Z,63.70
2018-11-07T10:23:57.474Z,64.00
2018-11-07T10:26:26.811Z,63.90
2018-11-07T10:28:56.286Z,63.90
2018-11-07T10:31:25.526Z,63.20
2018-11-07T10:33:54.887Z,62.90
2018-11-07T10:36:24.196Z,62.50
2018-11-07T10:38:53.573Z,62.20
2018-11-07T10:41:22.856Z,62.40
2018-11-07T10:43:52.239Z,62.90
2018-11-07T10:46:21.838Z,63.30
2018-11-07T10:48:51.177Z,63.50
2018-11-07T10:51:20.521Z,64.80
2018-11-07T10:53:49.825Z,65.70
2018-11-07T10:56:19.388Z,66.00
2018-11-07T10:58:48.686Z,68.60
2018-11-07T11:01:22.922Z,69.20
2018-11-07T11:03:52.231Z,69.30
2018-11-07T11:06:21.520Z,69.20
2018-11-07T11:08:50.881Z,68.60
2018-11-07T11:11:20.230Z,68.80
2018-11-07T11:13:49.742Z,67.90
2018-11-07T11:16:19.039Z,67.30
2018-11-07T11:18:48.355Z,67.90
2018-11-07T11:21:17.656Z,68.00
2018-11-07T11:23:46.967Z,69.10
2018-11-07T11:26:16.224Z,69.80
2018-11-07T11:28:45.573Z,71.30
2018-11-07T11:31:14.907Z,70.90
2018-11-07T11:33:44.340Z,70.50
2018-11-07T11:36:13.769Z,69.40
2018-11-07T11:38:43.114Z,68.00
2018-11-07T11:41:12.535Z,67.30
2018-11-07T11:43:41.756Z,67.90
2018-11-07T11:46:11.039Z,68.90
2018-11-07T11:48:40.773Z,69.60
2018-11-07T11:51:10.114Z,70.40
2018-11-07T11:53:39.657Z,71.00
2018-11-07T11:56:08.998Z,69.70
2018-11-07T11:58:38.417Z,69.70
2018-11-07T12:01:08.028Z,70.00
2018-11-07T12:03:37.380Z,70.40
2018-11-07T12:06:06.939Z,70.80
2018-11-07T12:08:36.334Z,70.70
2018-11-07T12:11:05.640Z,70.90
2018-11-07T12:13:35.150Z,70.90
2018-11-07T12:16:04.495Z,71.30
2018-11-07T12:18:33.832Z,72.00
2018-11-07T12:21:03.153Z,72.40
2018-11-07T12:23:32.485Z,72.80
2018-11-07T12:26:01.824Z,72.20
2018-11-07T12:28:31.099Z,71.20
2018-11-07T12:31:00.423Z,70.90
2018-11-07T12:33:29.754Z,70.40
2018-11-07T12:35:59.063Z,70.90
2018-11-07T12:38:28.355Z,71.80
2018-11-07T12:40:57.835Z,72.40
2018-11-07T12:43:27.151Z,72.80
2018-11-07T12:45:56.440Z,72.90
2018-11-07T12:48:25.828Z,73.30
2018-11-07T12:50:55.185Z,73.30
2018-11-07T12:53:24.503Z,73.70
2018-11-07T12:55:53.895Z,73.70
2018-11-07T12:58:23.332Z,73.70
2018-11-07T13:00:52.486Z,73.70
2018-11-07T13:03:21.869Z,73.80
2018-11-07T13:05:51.224Z,74.00
2018-11-07T13:08:20.661Z,74.00
2018-11-07T13:10:49.993Z,74.40
2018-11-07T13:13:19.417Z,74.30
2018-11-07T13:15:48.698Z,73.60
2018-11-07T13:18:18.069Z,73.70
2018-11-07T13:20:47.361Z,73.80
2018-11-07T13:23:16.809Z,73.70
2018-11-07T13:25:46.154Z,74.40
2018-11-07T13:28:15.577Z,74.10
2018-11-07T13:30:44.849Z,74.10
2018-11-07T13:33:14.178Z,74.30
2018-11-07T13:35:43.473Z,74.80
2018-11-07T13:38:13.168Z,74.90
2018-11-07T13:40:42.216Z,75.20
2018-11-07T13:43:11.569Z,74.90
2018-11-07T13:45:40.922Z,75.20
2018-11-07T13:48:10.259Z,75.30
2018-11-07T13:50:39.573Z,75.50
2018-11-07T13:53:08.895Z,75.30
2018-11-07T13:55:38.223Z,75.20
2018-11-07T13:58:07.495Z,75.50
2018-11-07T14:00:36.834Z,75.20
2018-11-07T14:03:06.287Z,75.30
2018-11-07T14:05:35.901Z,75.20
2018-11-07T14:08:05.526Z,75.30
2018-11-07T14:10:34.876Z,75.20
2018-11-07T14:13:04.264Z,75.50
2018-11-07T14:15:33.666Z,75.70
2018-11-07T14:18:03.064Z,75.80
2018-11-07T14:20:33.619Z,75.90
2018-11-07T14:23:02.915Z,76.10
2018-11-07T14:25:32.211Z,76.10
2018-11-07T14:28:01.863Z,76.00
2018-11-07T14:30:31.824Z,76.30
2018-11-07T14:33:02.189Z,76.50
2018-11-07T14:35:32.794Z,76.80
2018-11-07T14:38:02.124Z,76.90
2018-11-07T14:40:31.481Z,76.60
2018-11-07T14:43:02.158Z,76.60
2018-11-07T14:45:31.750Z,76.80
2018-11-07T14:48:01.091Z,77.60
2018-11-07T14:50:30.439Z,77.50
2018-11-07T14:52:59.730Z,78.10
2018-11-07T14:55:29.108Z,78.20
2018-11-07T14:57:58.626Z,77.60
2018-11-07T15:00:28.685Z,77.60
2018-11-07T15:02:58.113Z,77.90
2018-11-07T15:05:27.578Z,78.20
2018-11-07T15:07:58.120Z,78.60
2018-11-07T15:10:27.414Z,78.80
2018-11-07T15:12:56.725Z,78.80
2018-11-07T15:15:26.068Z,79.10
2018-11-07T15:17:55.362Z,79.50
2018-11-07T15:20:25.634Z,79.60
2018-11-07T15:22:54.921Z,79.50
2018-11-07T15:25:24.184Z,79.80
2018-11-07T15:27:53.819Z,79.80
2018-11-07T15:30:23.126Z,80.50
2018-11-07T15:32:52.432Z,80.30
2018-11-07T15:35:21.740Z,80.20
2018-11-07T15:37:51.483Z,80.10
2018-11-07T15:40:20.846Z,80.10
2018-11-07T15:42:50.189Z,80.00
2018-11-07T15:45:20.406Z,80.00
2018-11-07T15:47:50.157Z,80.20
2018-11-07T15:50:24.506Z,80.40
2018-11-07T15:52:54.172Z,80.50
2018-11-07T15:55:23.447Z,81.30
2018-11-07T15:57:54.047Z,81.90
2018-11-07T16:00:23.346Z,82.20
2018-11-07T16:02:52.667Z,82.30
2018-11-07T16:05:22.022Z,82.40
2018-11-07T16:07:51.299Z,82.60
2018-11-07T16:10:20.988Z,83.40
2018-11-07T16:12:50.442Z,83.90
2018-11-07T16:15:19.902Z,84.10
2018-11-07T16:17:56.556Z,84.70
2018-11-07T16:20:29.908Z,85.10
2018-11-07T16:23:04.213Z,85.60
2018-11-07T16:25:36.841Z,85.70
2018-11-07T16:28:11.665Z,86.20
2018-11-07T16:30:48.571Z,86.50
2018-11-07T16:33:17.978Z,86.50
2018-11-07T16:35:47.279Z,86.90
2018-11-07T16:38:16.618Z,87.20
2018-11-07T16:40:46.048Z,87.70
2018-11-07T16:43:15.306Z,88.20
2018-11-07T16:45:44.944Z,88.70
2018-11-07T16:48:14.258Z,89.10
2018-11-07T16:50:43.696Z,89.60
2018-11-07T16:53:13.193Z,90.00
2018-11-07T16:55:42.557Z,90.10
2018-11-07T16:58:11.883Z,90.30
2018-11-07T17:00:41.216Z,90.40
2018-11-07T17:03:10.747Z,90.50
2018-11-07T17:05:40.043Z,90.50
2018-11-07T17:08:09.410Z,90.70
2018-11-07T17:10:38.769Z,90.80
2018-11-07T17:13:08.072Z,90.80
2018-11-07T17:15:37.456Z,91.00
2018-11-07T17:18:07.409Z,91.10
2018-11-07T17:20:36.707Z,91.60
2018-11-07T17:23:06.281Z,91.40
2018-11-07T17:25:35.636Z,91.70
2018-11-07T17:28:05.086Z,91.80
2018-11-07T17:30:34.492Z,92.10
2018-11-07T17:33:03.836Z,92.30
2018-11-07T17:35:33.182Z,92.40
2018-11-07T17:38:02.768Z,92.60
2018-11-07T17:40:32.099Z,92.60
2018-11-07T17:43:01.469Z,92.70
2018-11-07T17:45:30.878Z,92.50
2018-11-07T17:48:00.297Z,92.60
2018-11-07T17:50:29.591Z,92.70
2018-11-07T17:52:59.049Z,92.80
2018-11-07T17:55:28.350Z,92.90
2018-11-07T17:57:57.709Z,92.90
2018-11-07T18:00:34.206Z,92.90
2018-11-07T18:03:03.532Z,92.80
2018-11-07T18:05:32.835Z,92.70
2018-11-07T18:08:02.214Z,92.60
2018-11-07T18:10:31.522Z,92.50
2018-11-07T18:13:00.871Z,92.50
2018-11-07T18:15:30.215Z,92.50
2018-11-07T18:17:59.529Z,92.40
2018-11-07T18:20:28.807Z,92.40
2018-11-07T18:22:58.164Z,92.40
2018-11-07T18:25:27.636Z,92.50
2018-11-07T18:27:57.019Z,92.40
2018-11-07T18:30:26.372Z,92.60
2018-11-07T18:32:55.811Z,92.60
2018-11-07T18:35:25.237Z,92.80
2018-11-07T18:37:54.593Z,92.80
2018-11-07T18:40:24.159Z,92.80
2018-11-07T18:42:53.499Z,92.80
2018-11-07T18:45:23.308Z,92.80
2018-11-07T18:47:52.634Z,92.90
2018-11-07T18:50:22.090Z,92.90
2018-11-07T18:52:51.373Z,93.00
2018-11-07T18:55:20.799Z,93.10
2018-11-07T18:57:50.151Z,93.20
2018-11-07T19:00:20.545Z,93.30
2018-11-07T19:02:50.533Z,93.40
2018-11-07T19:05:19.974Z,93.40
2018-11-07T19:07:49.412Z,93.50
2018-11-07T19:10:20.195Z,93.60
2018-11-07T19:12:50.628Z,93.70
2018-11-07T19:15:20.518Z,93.80
2018-11-07T19:17:50.883Z,93.80
2018-11-07T19:20:20.599Z,93.90
2018-11-07T19:22:50.037Z,94.00
2018-11-07T19:25:20.518Z,94.00
2018-11-07T19:27:49.863Z,94.10
2018-11-07T19:30:20.514Z,94.40
2018-11-07T19:32:50.778Z,94.20
2018-11-07T19:35:20.593Z,94.20
2018-11-07T19:37:50.640Z,94.30
2018-11-07T19:40:22.018Z,94.30
2018-11-07T19:42:54.333Z,94.30
2018-11-07T19:45:24.276Z,94.30
2018-11-07T19:47:53.655Z,94.40
2018-11-07T19:50:23.360Z,94.50
2018-11-07T19:52:53.063Z,94.40
2018-11-07T19:55:23.860Z,94.60
2018-11-07T19:57:55.873Z,94.60
2018-11-07T20:00:25.232Z,94.70
2018-11-07T20:02:54.592Z,94.80
2018-11-07T20:05:24.002Z,94.80
2018-11-07T20:07:53.580Z,94.80
2018-11-07T20:10:23.274Z,94.80
2018-11-07T20:12:52.588Z,94.90
2018-11-07T20:15:22.410Z,94.90
2018-11-07T20:17:51.836Z,94.90
2018-11-07T20:20:21.157Z,95.00
2018-11-07T20:22:50.559Z,95.10
2018-11-07T20:25:20.026Z,95.00
2018-11-07T20:27:49.385Z,95.10
2018-11-07T20:30:20.406Z,95.20
2018-11-07T20:32:49.771Z,94.60
2018-11-07T20:35:20.042Z,94.30
2018-11-07T20:37:49.480Z,94.10
2018-11-07T20:40:20.067Z,94.00
2018-11-07T20:42:49.495Z,94.00
2018-11-07T20:45:19.151Z,94.20
2018-11-07T20:47:48.472Z,93.60
2018-11-07T20:50:24.272Z,93.40
2018-11-07T20:52:53.676Z,93.30
2018-11-07T20:55:22.968Z,93.30
2018-11-07T20:57:52.329Z,93.10
2018-11-07T21:00:22.919Z,93.00
2018-11-07T21:02:52.376Z,92.90
2018-11-07T21:05:21.975Z,92.60
2018-11-07T21:07:51.564Z,92.20
2018-11-07T21:10:22.035Z,91.70
2018-11-07T21:12:52.027Z,91.00
2018-11-07T21:15:22.039Z,90.60
2018-11-07T21:17:51.429Z,90.40
2018-11-07T21:20:21.770Z,90.10
2018-11-07T21:22:51.107Z,90.00
2018-11-07T21:25:20.439Z,89.50
2018-11-07T21:27:49.772Z,89.00
2018-11-07T21:30:21.116Z,88.70
2018-11-07T21:32:50.517Z,88.70
2018-11-07T21:35:19.919Z,88.40
2018-11-07T21:37:49.234Z,87.90
2018-11-07T21:42:26.194Z,87.40
2018-11-07T21:44:55.535Z,86.10
2018-11-07T21:47:24.881Z,85.80
2018-11-07T21:49:54.317Z,85.50
2018-11-07T21:52:23.722Z,85.30
2018-11-07T21:54:53.207Z,85.20
2018-11-07T21:57:22.599Z,85.40
2018-11-07T21:59:51.995Z,85.50
2018-11-07T22:02:21.341Z,85.50
2018-11-07T22:04:50.776Z,85.40
2018-11-07T22:07:20.080Z,85.20
2018-11-07T22:09:49.490Z,85.20
2018-11-07T22:12:18.906Z,85.30
2018-11-07T22:14:48.281Z,85.70
2018-11-07T22:17:17.619Z,86.00
2018-11-07T22:19:46.952Z,86.10
2018-11-07T22:22:16.296Z,86.70
2018-11-07T22:24:45.639Z,87.40
2018-11-07T22:27:15.098Z,87.70
2018-11-07T22:29:44.431Z,88.00
2018-11-07T22:32:13.836Z,88.40
2018-11-07T22:34:43.237Z,88.40
2018-11-07T22:37:12.690Z,89.00
2018-11-07T22:39:42.133Z,90.10
2018-11-07T22:42:11.556Z,90.60
2018-11-07T22:44:41.036Z,90.80
2018-11-07T22:47:10.416Z,91.50
2018-11-07T22:49:39.736Z,91.80
2018-11-07T22:52:09.035Z,92.20
2018-11-07T22:54:38.402Z,92.60
2018-11-07T22:57:07.845Z,92.50
2018-11-07T22:59:37.170Z,92.50
2018-11-07T23:02:06.650Z,92.80
2018-11-07T23:04:35.997Z,93.10
2018-11-07T23:07:05.378Z,93.40
2018-11-07T23:09:34.809Z,93.70
2018-11-07T23:12:04.215Z,93.80
2018-11-07T23:14:33.564Z,93.80
2018-11-07T23:17:02.918Z,93.90
2018-11-07T23:19:32.375Z,94.00
2018-11-07T23:22:01.666Z,93.90
2018-11-07T23:24:31.029Z,93.90
2018-11-07T23:27:00.383Z,93.90
2018-11-07T23:29:29.737Z,93.80
2018-11-07T23:31:59.131Z,93.70
2018-11-07T23:34:28.488Z,93.50
2018-11-07T23:36:57.899Z,93.30
2018-11-07T23:39:27.312Z,93.30
2018-11-07T23:41:56.674Z,93.20
2018-11-07T23:44:26.033Z,93.10
2018-11-07T23:46:55.447Z,93.00
2018-11-07T23:49:24.797Z,92.90
2018-11-07T23:51:54.182Z,92.90
2018-11-07T23:54:23.545Z,93.00
2018-11-07T23:56:53.085Z,93.10
2018-11-07T23:59:22.412Z,93.10
